Time;durP1;ratioP1;P1;durP2;ratioP2;P2;SDS_P1;SDS_P2;PMS_P1;PMS_P2;Temp;Humidity;BMP_temperature;BMP_pressure;BME280_temperature;BME280_humidity;BME280_pressure;Samples;Min_cycle;Max_cycle;Signal;HPM_P1;HPM_P2
2022/03/08 00:02:07;;;;;;;16.20;10.37;;;;;;;0.32;100.00;94213.78;5073627;28;20253;-64
2022/03/08 00:04:34;;;;;;;16.40;10.53;;;;;;;0.26;100.00;94205.81;5073428;28;20183;-64
2022/03/08 00:07:00;;;;;;;16.00;9.90;;;;;;;0.19;100.00;94205.31;5073826;28;20334;-61
2022/03/08 00:09:26;;;;;;;16.57;10.10;;;;;;;0.28;100.00;94201.53;5073195;28;20247;-63
2022/03/08 00:11:51;;;;;;;17.13;10.67;;;;;;;0.30;100.00;94208.06;5073663;28;20668;-60
2022/03/08 00:14:17;;;;;;;16.47;11.60;;;;;;;0.24;100.00;94207.56;5073322;28;20179;-61
2022/03/08 00:16:43;;;;;;;16.93;10.83;;;;;;;0.45;100.00;94208.94;5073428;28;20216;-63
2022/03/08 00:19:08;;;;;;;16.60;10.90;;;;;;;0.40;100.00;94209.19;5055366;28;20173;-61
2022/03/08 00:21:34;;;;;;;16.03;9.67;;;;;;;0.35;100.00;94212.78;5073407;28;20255;-62
2022/03/08 00:23:59;;;;;;;15.20;10.53;;;;;;;0.43;100.00;94213.19;5072930;28;20176;-61
2022/03/08 00:26:25;;;;;;;17.33;10.93;;;;;;;0.49;100.00;94213.69;5073164;28;20204;-62
2022/03/08 00:28:50;;;;;;;16.53;10.40;;;;;;;0.36;100.00;94217.75;5072937;28;20196;-62
2022/03/08 00:31:18;;;;;;;15.70;10.33;;;;;;;0.19;100.00;94207.81;5072836;28;20609;-64
2022/03/08 00:33:44;;;;;;;16.87;10.77;;;;;;;0.27;100.00;94204.91;5072816;28;20169;-65
2022/03/08 00:36:09;;;;;;;15.87;10.27;;;;;;;0.25;100.00;94206.66;5054848;28;20219;-64
2022/03/08 00:38:35;;;;;;;15.03;10.00;;;;;;;0.33;100.00;94205.38;5072910;28;20177;-63
2022/03/08 00:41:01;;;;;;;18.17;10.77;;;;;;;0.34;100.00;94202.00;5073053;28;20205;-62
2022/03/08 00:43:26;;;;;;;15.20;9.70;;;;;;;0.08;100.00;94204.25;5054826;28;20177;-61
2022/03/08 00:45:53;;;;;;;16.57;10.57;;;;;;;-0.01;100.00;94208.84;5079009;22;20225;-63
2022/03/08 00:48:18;;;;;;;15.53;9.67;;;;;;;0.08;100.00;94204.25;5079026;22;20237;-60
2022/03/08 00:50:44;;;;;;;16.17;11.13;;;;;;;0.24;100.00;94192.56;5072389;28;20243;-62
2022/03/08 00:53:10;;;;;;;14.00;9.70;;;;;;;0.15;100.00;94203.03;5076583;23;20684;-61
2022/03/08 00:55:36;;;;;;;15.33;10.53;;;;;;;0.15;100.00;94195.53;5072193;28;20216;-64
2022/03/08 00:58:04;;;;;;;15.57;10.17;;;;;;;0.19;100.00;94192.00;5072646;28;20229;-64
2022/03/08 01:00:31;;;;;;;16.57;9.73;;;;;;;0.20;100.00;94199.44;5072693;28;20230;-60
2022/03/08 01:02:57;;;;;;;15.47;10.97;;;;;;;0.15;100.00;94195.53;5072182;28;20214;-61
2022/03/08 01:05:23;;;;;;;17.83;10.70;;;;;;;0.37;100.00;94196.03;5072348;28;20275;-64
2022/03/08 01:07:48;;;;;;;17.03;10.43;;;;;;;0.39;100.00;94196.75;5088831;22;20276;-62
2022/03/08 01:10:17;;;;;;;17.43;11.37;;;;;;;0.19;100.00;94197.81;5052098;28;20216;-64
2022/03/08 01:12:44;;;;;;;17.00;10.33;;;;;;;0.27;100.00;94198.22;5052391;28;20185;-63
2022/03/08 01:15:10;;;;;;;15.30;10.43;;;;;;;0.26;100.00;94194.13;5052150;28;20209;-62
2022/03/08 01:17:36;;;;;;;16.57;10.63;;;;;;;0.23;100.00;94194.25;5052184;28;20212;-64
2022/03/08 01:20:06;;;;;;;16.97;10.57;;;;;;;0.12;100.00;94185.72;5052146;28;20191;-62
2022/03/08 01:22:31;;;;;;;17.10;10.27;;;;;;;0.40;100.00;94185.88;5052074;28;20208;-62
2022/03/08 01:24:57;;;;;;;16.40;11.00;;;;;;;0.26;100.00;94178.31;5052024;28;20174;-63
2022/03/08 01:27:22;;;;;;;14.50;9.97;;;;;;;0.48;100.00;94179.59;5051972;28;20552;-63
2022/03/08 01:29:48;;;;;;;18.40;10.83;;;;;;;0.47;100.00;94177.97;5051955;28;20185;-64
2022/03/08 01:32:13;;;;;;;16.17;10.50;;;;;;;0.34;100.00;94176.22;5052106;28;20173;-61
2022/03/08 01:34:39;;;;;;;16.63;10.63;;;;;;;0.31;100.00;94181.34;5051927;28;20188;-64
2022/03/08 01:37:04;;;;;;;18.03;11.03;;;;;;;0.29;100.00;94183.13;5060290;22;20217;-61
2022/03/08 01:39:30;;;;;;;16.37;9.77;;;;;;;0.27;100.00;94188.22;5071727;28;20635;-60
2022/03/08 01:41:56;;;;;;;15.60;10.37;;;;;;;0.23;100.00;94178.47;5071664;28;20189;-62
2022/03/08 01:44:22;;;;;;;17.97;11.37;;;;;;;0.19;100.00;94182.00;5071562;28;20226;-60
2022/03/08 01:46:47;;;;;;;17.90;11.73;;;;;;;0.09;100.00;94183.38;5078137;22;20713;-63
2022/03/08 01:49:14;;;;;;;16.73;11.47;;;;;;;-0.06;100.00;94173.28;5053795;28;20176;-62
2022/03/08 01:51:42;;;;;;;19.03;12.40;;;;;;;-0.04;100.00;94184.00;5071890;28;20629;-63
2022/03/08 01:54:09;;;;;;;17.57;11.07;;;;;;;-0.21;100.00;94176.59;5071643;28;20203;-61
2022/03/08 01:56:34;;;;;;;18.77;11.63;;;;;;;-0.09;100.00;94183.44;5071867;28;20212;-61
2022/03/08 01:59:01;;;;;;;18.60;10.90;;;;;;;-0.09;100.00;94178.47;5071611;28;20225;-61
2022/03/08 02:01:26;;;;;;;16.40;10.87;;;;;;;0.21;100.00;94181.03;5071871;28;20246;-62
2022/03/08 02:03:52;;;;;;;17.97;10.60;;;;;;;0.02;100.00;94185.41;5072008;28;20204;-62
2022/03/08 02:06:18;;;;;;;16.97;10.73;;;;;;;-0.14;100.00;94180.38;5076064;28;20616;-63
2022/03/08 02:08:44;;;;;;;19.03;11.80;;;;;;;-0.20;100.00;94183.19;5057488;28;20560;-64
2022/03/08 02:11:11;;;;;;;17.40;11.50;;;;;;;-0.14;100.00;94182.88;5057386;28;20218;-62
2022/03/08 02:13:38;;;;;;;17.80;11.43;;;;;;;-0.25;100.00;94182.63;5056973;28;20788;-62
2022/03/08 02:16:05;;;;;;;20.03;12.23;;;;;;;-0.07;100.00;94186.69;5075604;28;20205;-64
2022/03/08 02:18:30;;;;;;;17.37;10.70;;;;;;;-0.14;100.00;94189.53;5075525;28;20176;-63
2022/03/08 02:20:56;;;;;;;20.53;12.73;;;;;;;0.09;100.00;94191.69;5075638;28;20208;-61
2022/03/08 02:23:21;;;;;;;19.70;12.37;;;;;;;0.11;100.00;94194.09;5075346;28;20178;-62
2022/03/08 02:25:47;;;;;;;20.30;12.10;;;;;;;0.16;100.00;94197.16;5057308;28;20201;-62
2022/03/08 02:28:12;;;;;;;18.30;12.27;;;;;;;0.13;100.00;94194.81;5082306;22;20184;-64
2022/03/08 02:30:37;;;;;;;20.33;12.50;;;;;;;0.01;100.00;94193.78;5074660;28;20267;-60
2022/03/08 02:33:03;;;;;;;19.53;11.97;;;;;;;-0.07;100.00;94191.66;5075172;28;20263;-63
2022/03/08 02:35:30;;;;;;;21.17;13.90;;;;;;;0.11;100.00;94202.41;5075079;28;20191;-62
2022/03/08 02:38:02;;;;;;;20.07;12.23;;;;;;;0.04;100.00;94196.13;5074939;28;20200;-63
2022/03/08 02:40:31;;;;;;;20.43;12.03;;;;;;;0.08;100.00;94200.06;5081554;22;20238;-61
2022/03/08 02:42:57;;;;;;;17.43;11.77;;;;;;;-0.11;100.00;94195.22;5075062;28;20193;-62
2022/03/08 02:45:23;;;;;;;23.73;13.43;;;;;;;-0.17;100.00;94198.03;5074800;28;20210;-60
2022/03/08 02:47:49;;;;;;;21.80;13.60;;;;;;;-0.13;100.00;94199.47;5075042;28;20259;-63
2022/03/08 02:50:15;;;;;;;21.90;14.13;;;;;;;-0.29;100.00;94197.81;5074704;28;20681;-61
2022/03/08 02:52:42;;;;;;;21.93;13.13;;;;;;;-0.25;100.00;94197.59;5074764;28;20228;-64
2022/03/08 02:55:11;;;;;;;24.33;13.70;;;;;;;-0.15;100.00;94202.94;5074738;28;20564;-64
2022/03/08 02:57:37;;;;;;;20.53;12.20;;;;;;;-0.07;100.00;94206.66;5081175;22;20258;-62
2022/03/08 03:00:11;;;;;;;23.07;13.50;;;;;;;-0.07;100.00;94215.84;5074554;28;20203;-63
2022/03/08 03:02:37;;;;;;;22.20;13.60;;;;;;;-0.03;100.00;94202.31;5074793;28;20272;-60
2022/03/08 03:05:03;;;;;;;22.63;13.37;;;;;;;-0.20;100.00;94212.34;5074837;28;20211;-64
2022/03/08 03:07:35;;;;;;;21.33;12.23;;;;;;;-0.33;100.00;94206.34;5074568;28;20221;-62
2022/03/08 03:10:03;;;;;;;23.87;14.80;;;;;;;-0.32;100.00;94212.94;5074433;28;20176;-63
2022/03/08 03:12:28;;;;;;;22.00;13.13;;;;;;;-0.26;100.00;94213.47;5074742;28;20637;-63
2022/03/08 03:14:54;;;;;;;22.23;13.30;;;;;;;-0.29;100.00;94213.63;5074669;28;20675;-62
2022/03/08 03:17:19;;;;;;;23.93;13.30;;;;;;;-0.25;100.00;94214.28;5055330;28;20310;-63
2022/03/08 03:19:45;;;;;;;19.43;12.20;;;;;;;-0.17;100.00;94214.69;5074105;28;20196;-63
2022/03/08 03:22:10;;;;;;;22.53;13.73;;;;;;;-0.24;100.00;94224.16;5074120;28;20179;-64
2022/03/08 03:24:36;;;;;;;20.53;12.37;;;;;;;-0.14;100.00;94222.81;5074133;28;20176;-61
2022/03/08 03:27:01;;;;;;;20.57;13.60;;;;;;;-0.20;100.00;94235.63;5074130;28;20211;-63
2022/03/08 03:29:27;;;;;;;18.93;12.00;;;;;;;-0.24;100.00;94225.84;5074402;28;20694;-63
2022/03/08 03:31:53;;;;;;;20.80;13.90;;;;;;;-0.22;100.00;94222.41;5055988;28;20204;-64
2022/03/08 03:34:18;;;;;;;21.37;13.63;;;;;;;-0.16;100.00;94232.09;5074240;28;20179;-63
2022/03/08 03:36:43;;;;;;;19.07;11.80;;;;;;;-0.23;100.00;94224.97;5073586;28;20365;-64
2022/03/08 03:39:09;;;;;;;20.97;13.90;;;;;;;-0.16;100.00;94219.59;5073818;28;20188;-64
2022/03/08 03:41:35;;;;;;;21.50;13.70;;;;;;;-0.10;100.00;94225.97;5073798;28;20199;-62
2022/03/08 03:44:00;;;;;;;20.80;12.67;;;;;;;-0.10;100.00;94215.97;5073683;28;20263;-61
2022/03/08 03:46:26;;;;;;;23.00;13.83;;;;;;;0.19;100.00;94226.97;5073653;28;20300;-63
2022/03/08 03:48:51;;;;;;;33.30;18.93;;;;;;;0.24;100.00;94225.06;5073976;28;20180;-63
2022/03/08 03:51:17;;;;;;;24.63;14.20;;;;;;;0.24;100.00;94230.88;5055589;28;20303;-62
2022/03/08 03:53:44;;;;;;;22.63;13.70;;;;;;;0.34;100.00;94226.19;5073979;28;20227;-62
2022/03/08 03:56:09;;;;;;;23.00;14.00;;;;;;;0.26;100.00;94220.78;5073389;28;20258;-63
2022/03/08 03:58:35;;;;;;;21.13;12.77;;;;;;;0.13;100.00;94228.09;5055680;28;20196;-63
2022/03/08 04:01:00;;;;;;;19.77;13.10;;;;;;;-0.01;100.00;94216.34;5073364;28;20366;-63
2022/03/08 04:03:26;;;;;;;21.53;12.53;;;;;;;-0.07;100.00;94224.16;5073687;28;20654;-62
2022/03/08 04:05:52;;;;;;;22.97;13.47;;;;;;;-0.12;100.00;94221.06;5073460;28;20196;-61
2022/03/08 04:08:20;;;;;;;20.73;13.20;;;;;;;-0.10;100.00;94224.28;5073478;28;20200;-63
2022/03/08 04:10:48;;;;;;;20.93;13.27;;;;;;;0.05;100.00;94220.19;5073462;28;20204;-61
2022/03/08 04:13:14;;;;;;;21.33;12.87;;;;;;;0.00;100.00;94225.44;5073092;28;20271;-60
2022/03/08 04:15:39;;;;;;;21.97;13.30;;;;;;;0.02;100.00;94222.06;5073234;28;20189;-63
2022/03/08 04:18:05;;;;;;;22.33;14.83;;;;;;;0.10;100.00;94220.78;5073248;28;20692;-64
2022/03/08 04:20:30;;;;;;;21.60;13.87;;;;;;;0.03;100.00;94226.16;5073154;28;20704;-64
2022/03/08 04:22:56;;;;;;;22.53;13.47;;;;;;;0.05;100.00;94231.88;5055297;28;20196;-63
2022/03/08 04:25:21;;;;;;;23.87;14.20;;;;;;;0.08;100.00;94222.56;5088179;22;20320;-60
2022/03/08 04:27:47;;;;;;;21.27;13.97;;;;;;;-0.03;100.00;94234.78;5072782;28;20704;-60
2022/03/08 04:30:12;;;;;;;25.30;14.17;;;;;;;0.00;100.00;94222.94;5073103;28;20222;-62
2022/03/08 04:32:38;;;;;;;23.00;13.87;;;;;;;0.25;100.00;94221.66;5072838;28;20205;-62
2022/03/08 04:35:05;;;;;;;25.50;14.77;;;;;;;0.25;100.00;94221.66;5079536;22;20236;-65
2022/03/08 04:37:31;;;;;;;22.00;14.13;;;;;;;0.12;100.00;94220.69;5072931;28;20218;-60
2022/03/08 04:39:56;;;;;;;24.27;14.67;;;;;;;0.25;100.00;94224.16;5072651;28;20180;-64
2022/03/08 04:42:21;;;;;;;24.30;14.83;;;;;;;-0.01;100.00;94216.34;5079385;22;20232;-63
2022/03/08 04:44:47;;;;;;;23.40;14.33;;;;;;;-0.01;100.00;94218.84;5072740;28;20761;-62
2022/03/08 04:47:12;;;;;;;23.23;14.77;;;;;;;0.20;100.00;94219.44;5073092;28;20188;-65
2022/03/08 04:49:38;;;;;;;23.90;13.63;;;;;;;0.21;100.00;94222.72;5072449;28;20222;-64
2022/03/08 04:52:04;;;;;;;23.80;13.83;;;;;;;0.03;100.00;94219.47;5078987;22;20319;-66
2022/03/08 04:54:29;;;;;;;23.23;14.40;;;;;;;-0.11;100.00;94212.69;5085931;22;20667;-65
2022/03/08 04:56:55;;;;;;;22.70;13.60;;;;;;;-0.03;100.00;94215.59;5071989;28;20641;-63
2022/03/08 04:59:20;;;;;;;24.93;14.40;;;;;;;-0.06;100.00;94215.75;5054505;28;20214;-65
2022/03/08 05:01:46;;;;;;;27.87;15.03;;;;;;;0.03;100.00;94221.97;5072527;28;20193;-63
2022/03/08 05:04:11;;;;;;;28.13;14.53;;;;;;;0.01;100.00;94216.25;5072447;28;20188;-64
2022/03/08 05:06:37;;;;;;;25.00;15.43;;;;;;;-0.07;100.00;94224.16;5072101;28;20192;-63
2022/03/08 05:09:08;;;;;;;25.63;15.33;;;;;;;0.28;100.00;94222.34;5072477;28;20188;-64
2022/03/08 05:11:34;;;;;;;26.23;14.33;;;;;;;0.17;100.00;94224.56;5072045;28;20292;-63
2022/03/08 05:13:59;;;;;;;27.00;15.63;;;;;;;0.01;100.00;94223.75;5072306;28;20219;-62
2022/03/08 05:16:24;;;;;;;27.03;15.70;;;;;;;-0.12;100.00;94222.75;5078608;22;20294;-65
2022/03/08 05:18:50;;;;;;;28.00;14.40;;;;;;;-0.02;100.00;94228.88;5072363;28;20234;-60
2022/03/08 05:21:16;;;;;;;25.20;14.10;;;;;;;-0.14;100.00;94229.50;5071486;28;20211;-65
2022/03/08 05:23:41;;;;;;;30.03;16.73;;;;;;;-0.14;100.00;94222.00;5071927;28;20594;-61
2022/03/08 05:26:07;;;;;;;28.87;16.93;;;;;;;-0.13;100.00;94224.44;5071994;28;20240;-65
2022/03/08 05:28:33;;;;;;;27.10;14.97;;;;;;;0.02;100.00;94224.56;5078633;22;20225;-64
2022/03/08 05:30:58;;;;;;;30.53;15.90;;;;;;;-0.07;100.00;94229.13;5071796;28;20561;-66
2022/03/08 05:33:24;;;;;;;26.27;14.73;;;;;;;-0.06;100.00;94228.22;5071639;28;20583;-64
2022/03/08 05:35:50;;;;;;;29.77;16.03;;;;;;;-0.01;100.00;94223.81;5071525;28;20193;-64
2022/03/08 05:38:16;;;;;;;29.30;15.97;;;;;;;-0.08;100.00;94221.69;5072036;28;20569;-62
2022/03/08 05:40:42;;;;;;;27.50;15.40;;;;;;;-0.09;100.00;94215.09;5053259;28;20624;-61
2022/03/08 05:43:07;;;;;;;26.77;15.77;;;;;;;-0.06;100.00;94228.22;5072180;28;20392;-63
2022/03/08 05:45:33;;;;;;;30.07;15.80;;;;;;;-0.07;100.00;94233.31;5053556;28;20200;-60
2022/03/08 05:47:58;;;;;;;28.27;15.67;;;;;;;-0.14;100.00;94227.81;5071284;28;20345;-61
2022/03/08 05:50:24;;;;;;;23.33;14.90;;;;;;;-0.21;100.00;94226.53;5053707;28;20200;-63
2022/03/08 05:52:49;;;;;;;28.00;16.00;;;;;;;-0.17;100.00;94230.47;5071926;28;20226;-63
2022/03/08 05:55:15;;;;;;;29.37;17.47;;;;;;;-0.09;100.00;94237.59;5071601;28;20547;-63
2022/03/08 05:57:40;;;;;;;29.03;17.03;;;;;;;0.16;100.00;94232.16;5036781;28;20724;-61
2022/03/08 06:00:07;;;;;;;30.67;16.43;;;;;;;0.30;100.00;94238.06;5071602;28;20200;-62
2022/03/08 06:02:32;;;;;;;35.23;17.10;;;;;;;0.16;100.00;94237.16;5079071;23;20323;-62
2022/03/08 06:04:58;;;;;;;27.50;15.77;;;;;;;0.13;100.00;94233.09;5090365;28;20270;-63
2022/03/08 06:07:24;;;;;;;30.17;17.40;;;;;;;0.32;100.00;94237.97;5092072;28;20184;-60
2022/03/08 06:09:49;;;;;;;28.77;15.87;;;;;;;0.37;100.00;94243.50;5091516;28;20179;-64
2022/03/08 06:12:14;;;;;;;26.10;15.83;;;;;;;0.38;100.00;94247.66;5089162;22;20235;-64
2022/03/08 06:14:40;;;;;;;28.27;18.03;;;;;;;0.20;100.00;94246.91;5071186;28;20187;-62
2022/03/08 06:17:07;;;;;;;26.97;16.07;;;;;;;0.22;100.00;94241.84;5053346;28;20716;-61
2022/03/08 06:19:33;;;;;;;29.03;17.50;;;;;;;0.40;100.00;94241.69;5053445;28;20219;-62
2022/03/08 06:21:59;;;;;;;25.80;16.50;;;;;;;0.41;100.00;94255.78;5053526;28;20698;-64
2022/03/08 06:24:24;;;;;;;27.10;16.40;;;;;;;0.40;100.00;94248.38;5071167;28;20552;-63
2022/03/08 06:26:50;;;;;;;30.60;16.30;;;;;;;0.17;100.00;94257.06;5071468;28;20690;-63
2022/03/08 06:29:16;;;;;;;29.97;15.73;;;;;;;0.45;100.00;94251.41;5053162;28;20208;-63
2022/03/08 06:31:41;;;;;;;27.43;16.27;;;;;;;0.51;100.00;94254.41;5071156;28;20210;-63
2022/03/08 06:34:07;;;;;;;28.00;16.97;;;;;;;0.61;100.00;94250.53;5071353;28;20180;-64
2022/03/08 06:36:34;;;;;;;29.70;15.87;;;;;;;0.94;100.00;94255.44;5071213;28;20642;-63
2022/03/08 06:39:00;;;;;;;29.00;17.13;;;;;;;0.84;100.00;94270.16;5053178;28;20191;-64
2022/03/08 06:41:26;;;;;;;27.67;16.83;;;;;;;0.83;100.00;94260.19;5053257;28;20571;-63
2022/03/08 06:43:52;;;;;;;31.23;17.33;;;;;;;0.77;100.00;94253.03;5053004;28;20176;-63
2022/03/08 06:46:17;;;;;;;29.10;16.77;;;;;;;1.08;100.00;94262.19;5071108;28;20698;-63
2022/03/08 06:48:43;;;;;;;28.37;17.27;;;;;;;1.33;100.00;94265.78;5070905;28;20553;-63
2022/03/08 06:51:08;;;;;;;27.77;15.73;;;;;;;1.05;100.00;94268.16;5041937;23;20225;-64
2022/03/08 06:53:34;;;;;;;29.97;16.30;;;;;;;1.19;100.00;94265.72;5054779;28;20264;-64
2022/03/08 06:55:59;;;;;;;23.27;14.97;;;;;;;1.15;100.00;94276.78;5054567;28;20200;-60
2022/03/08 06:58:26;;;;;;;24.40;15.70;;;;;;;1.13;100.00;94273.56;5054742;28;20190;-62
2022/03/08 07:00:52;;;;;;;27.93;16.50;;;;;;;1.22;100.00;94270.56;5054723;28;20224;-63
2022/03/08 07:03:17;;;;;;;26.87;15.87;;;;;;;1.04;100.00;94274.06;5054479;28;20205;-64
2022/03/08 07:05:43;;;;;;;30.67;16.00;;;;;;;1.04;100.00;94270.75;5054672;28;20215;-66
2022/03/08 07:08:09;;;;;;;26.03;15.53;;;;;;;1.00;100.00;94267.63;5054440;28;20196;-62
2022/03/08 07:10:35;;;;;;;25.37;14.73;;;;;;;0.73;100.00;94261.59;5054388;28;20201;-63
2022/03/08 07:13:00;;;;;;;23.53;13.93;;;;;;;0.72;100.00;94257.47;5054328;28;20207;-64
2022/03/08 07:15:26;;;;;;;28.63;16.23;;;;;;;0.63;100.00;94250.44;5036274;28;20213;-63
2022/03/08 07:17:51;;;;;;;26.10;14.33;;;;;;;0.51;100.00;94254.41;5036213;28;20303;-63
2022/03/08 07:20:17;;;;;;;24.10;15.03;;;;;;;0.40;100.00;94258.38;5036341;28;20245;-63
2022/03/08 07:22:43;;;;;;;23.87;15.40;;;;;;;0.49;100.00;94260.38;5054324;28;20187;-63
2022/03/08 07:25:10;;;;;;;23.20;14.60;;;;;;;0.51;100.00;94263.59;5054251;28;20683;-64
2022/03/08 07:27:36;;;;;;;22.60;14.13;;;;;;;0.85;100.00;94263.44;5053993;28;20258;-64
2022/03/08 07:30:05;;;;;;;24.27;14.57;;;;;;;0.73;100.00;94261.59;5060087;23;20231;-64
2022/03/08 07:32:31;;;;;;;24.73;14.70;;;;;;;0.83;100.00;94265.19;5073953;28;20191;-63
2022/03/08 07:34:56;;;;;;;24.73;14.97;;;;;;;1.02;100.00;94268.34;5069832;22;20216;-63
2022/03/08 07:37:23;;;;;;;26.73;16.00;;;;;;;0.92;100.00;94258.91;5052787;28;20205;-63
2022/03/08 07:39:48;;;;;;;26.80;15.60;;;;;;;0.99;100.00;94255.97;5053427;28;20195;-65
2022/03/08 07:42:16;;;;;;;25.90;15.63;;;;;;;0.64;100.00;94269.59;5053986;28;20253;-64
2022/03/08 07:44:42;;;;;;;27.10;16.10;;;;;;;0.71;100.00;94256.66;5054254;28;20218;-63
2022/03/08 07:47:08;;;;;;;26.37;16.17;;;;;;;0.74;100.00;94254.03;5053733;28;20274;-64
2022/03/08 07:49:35;;;;;;;25.67;15.13;;;;;;;0.92;100.00;94254.72;5054089;28;20189;-64
2022/03/08 07:52:07;;;;;;;21.73;13.33;;;;;;;1.13;100.00;94256.03;5053387;28;20197;-64
2022/03/08 07:54:32;;;;;;;22.23;13.23;;;;;;;1.04;100.00;94269.06;5052427;28;20201;-62
2022/03/08 07:56:58;;;;;;;21.77;13.60;;;;;;;0.48;100.00;94259.59;5053364;28;20769;-63
2022/03/08 07:59:26;;;;;;;21.73;13.60;;;;;;;0.48;100.00;94253.78;5053863;28;20189;-64
2022/03/08 08:01:51;;;;;;;26.30;14.90;;;;;;;0.54;100.00;94254.28;5051375;28;20201;-63
2022/03/08 08:04:17;;;;;;;23.37;13.93;;;;;;;0.56;100.00;94261.69;5053629;28;20185;-63
2022/03/08 08:06:43;;;;;;;21.47;14.17;;;;;;;0.41;100.00;94262.47;5053115;28;20563;-64
2022/03/08 08:09:08;;;;;;;20.77;13.97;;;;;;;0.50;100.00;94262.00;5053469;28;20189;-66
2022/03/08 08:11:33;;;;;;;17.50;11.37;;;;;;;0.24;100.00;94265.84;5053474;28;20200;-64
2022/03/08 08:13:59;;;;;;;16.83;11.30;;;;;;;0.22;100.00;94255.13;5053507;28;20643;-62
2022/03/08 08:16:24;;;;;;;20.10;12.87;;;;;;;0.20;100.00;94259.41;5053106;28;20639;-63
2022/03/08 08:18:50;;;;;;;21.53;13.27;;;;;;;0.37;100.00;94241.00;5053450;28;20185;-62
2022/03/08 08:21:16;;;;;;;20.67;13.43;;;;;;;0.29;100.00;94268.09;5053327;28;20562;-63
2022/03/08 08:23:41;;;;;;;21.53;12.50;;;;;;;0.22;100.00;94266.81;5061251;22;20188;-63
2022/03/08 08:26:07;;;;;;;20.73;13.00;;;;;;;0.20;100.00;94258.59;5053119;28;20213;-63
2022/03/08 08:28:32;;;;;;;21.50;13.37;;;;;;;0.13;100.00;94267.28;5053059;28;20181;-63
2022/03/08 08:30:58;;;;;;;28.67;14.27;;;;;;;0.11;100.00;94264.03;5052805;28;20212;-62
2022/03/08 08:33:23;;;;;;;21.83;13.03;;;;;;;-0.01;100.00;94272.97;5053023;28;20192;-64
2022/03/08 08:35:49;;;;;;;25.10;14.70;;;;;;;0.13;100.00;94273.09;5052540;28;20212;-64
2022/03/08 08:38:14;;;;;;;21.60;13.87;;;;;;;0.16;100.00;94277.13;5080141;22;20240;-64
2022/03/08 08:40:40;;;;;;;20.57;13.17;;;;;;;0.20;100.00;94286.88;5072550;28;20217;-64
2022/03/08 08:43:06;;;;;;;24.67;13.77;;;;;;;0.19;100.00;94285.25;5073040;28;20712;-64
2022/03/08 08:45:32;;;;;;;22.53;14.37;;;;;;;0.28;100.00;94289.00;5072645;28;20198;-65
2022/03/08 08:47:58;;;;;;;22.70;12.63;;;;;;;0.19;100.00;94287.75;5073046;28;20564;-65
2022/03/08 08:50:24;;;;;;;24.93;13.80;;;;;;;0.10;100.00;94288.25;5072384;28;20200;-64
2022/03/08 08:52:50;;;;;;;20.77;14.13;;;;;;;0.11;100.00;94284.84;5072570;28;20678;-64
2022/03/08 08:55:15;;;;;;;21.90;13.67;;;;;;;0.05;100.00;94290.16;5054214;28;20204;-65
2022/03/08 08:57:41;;;;;;;21.47;13.40;;;;;;;-0.05;100.00;94269.00;5072598;28;20216;-62
2022/03/08 09:00:08;;;;;;;23.37;14.07;;;;;;;0.10;100.00;94288.25;5072282;28;20587;-64
2022/03/08 09:02:34;;;;;;;26.23;15.27;;;;;;;0.12;100.00;94293.16;5072596;28;20700;-64
2022/03/08 09:05:00;;;;;;;20.77;13.20;;;;;;;-0.09;100.00;94288.34;5071996;28;20177;-64
2022/03/08 09:07:25;;;;;;;21.57;12.27;;;;;;;-0.12;100.00;94300.97;5072202;28;20203;-65
2022/03/08 09:09:50;;;;;;;25.20;16.27;;;;;;;-0.15;100.00;94281.16;5054134;28;20259;-63
2022/03/08 09:12:16;;;;;;;24.43;14.80;;;;;;;-0.29;100.00;94282.72;5054307;28;20184;-64
2022/03/08 09:14:42;;;;;;;21.70;13.57;;;;;;;-0.17;100.00;94292.09;5053244;28;20179;-64
2022/03/08 09:17:08;;;;;;;26.27;16.30;;;;;;;-0.33;100.00;94291.25;5072114;28;20299;-63
2022/03/08 09:19:34;;;;;;;28.37;14.53;;;;;;;-0.11;100.00;94280.13;5071873;28;20754;-64
2022/03/08 09:21:59;;;;;;;22.47;14.83;;;;;;;0.13;100.00;94303.06;5072084;28;20204;-65
2022/03/08 09:24:24;;;;;;;26.07;14.77;;;;;;;-0.03;100.00;94307.22;5078631;22;20234;-63
2022/03/08 09:26:50;;;;;;;26.33;14.77;;;;;;;-0.15;100.00;94287.84;5072060;28;20206;-63
2022/03/08 09:29:15;;;;;;;24.97;15.13;;;;;;;-0.26;100.00;94275.88;5072151;28;20183;-64
2022/03/08 09:31:41;;;;;;;25.93;15.77;;;;;;;-0.38;100.00;94283.16;5078932;22;20212;-64
2022/03/08 09:34:06;;;;;;;27.37;16.93;;;;;;;-0.14;100.00;94301.91;5071104;28;20251;-63
2022/03/08 09:36:32;;;;;;;26.47;15.93;;;;;;;-0.02;100.00;94308.81;5072041;28;20211;-65
2022/03/08 09:38:58;;;;;;;31.93;16.40;;;;;;;-0.11;100.00;94309.28;5078368;22;20242;-64
2022/03/08 09:41:25;;;;;;;25.30;14.40;;;;;;;0.04;100.00;94307.72;5071478;28;20200;-62
2022/03/08 09:43:51;;;;;;;29.60;16.53;;;;;;;0.11;100.00;94311.50;5072181;28;20183;-61
2022/03/08 09:46:17;;;;;;;25.43;14.53;;;;;;;0.13;100.00;94325.53;5078034;22;20228;-65
2022/03/08 09:48:43;;;;;;;25.07;15.83;;;;;;;0.08;100.00;94322.50;5071832;28;20176;-64
2022/03/08 09:51:09;;;;;;;25.87;15.40;;;;;;;0.14;100.00;94316.38;5071890;28;20565;-64
2022/03/08 09:53:35;;;;;;;25.60;15.60;;;;;;;0.20;100.00;94328.56;5071449;28;20172;-66
2022/03/08 09:56:02;;;;;;;30.40;16.90;;;;;;;0.37;100.00;94321.00;5071537;28;20215;-64
2022/03/08 09:58:28;;;;;;;27.00;16.40;;;;;;;0.06;100.00;94315.94;5053384;28;20207;-63
2022/03/08 10:00:55;;;;;;;30.03;17.70;;;;;;;0.09;100.00;94295.78;5053622;28;20211;-63
2022/03/08 10:03:31;;;;;;;29.07;16.07;;;;;;;0.28;100.00;94304.00;5071271;28;20176;-62
2022/03/08 10:05:57;;;;;;;27.57;15.57;;;;;;;0.32;100.00;94332.94;5053378;28;20356;-65
2022/03/08 10:08:27;;;;;;;28.80;14.37;;;;;;;0.26;100.00;94330.75;5071778;28;20218;-62
2022/03/08 10:10:59;;;;;;;26.87;15.07;;;;;;;0.08;100.00;94316.69;5071825;28;20207;-64
2022/03/08 10:13:35;;;;;;;31.77;17.83;;;;;;;0.14;100.00;94303.88;5071607;28;20203;-64
2022/03/08 10:16:34;;;;;;;27.00;16.00;;;;;;;0.36;100.00;94314.41;5053373;28;20345;-64
2022/03/08 10:19:03;;;;;;;25.73;15.67;;;;;;;0.42;100.00;94339.91;5053464;28;20191;-62
2022/03/08 10:21:33;;;;;;;26.47;15.93;;;;;;;0.38;100.00;94337.63;5071507;28;20713;-63
2022/03/08 10:24:05;;;;;;;30.00;17.73;;;;;;;0.13;100.00;94317.25;5071165;28;20183;-63
2022/03/08 10:26:41;;;;;;;29.37;17.03;;;;;;;0.18;100.00;94301.16;5074608;28;20212;-63
2022/03/08 10:29:07;;;;;;;29.77;17.90;;;;;;;0.12;100.00;94311.47;5075325;28;20176;-61
2022/03/08 10:31:33;;;;;;;26.83;16.53;;;;;;;0.16;100.00;94307.09;5075553;28;20204;-63
2022/03/08 10:34:04;;;;;;;24.80;15.57;;;;;;;-0.03;100.00;94294.72;5057111;28;20184;-63
2022/03/08 10:36:31;;;;;;;29.93;17.80;;;;;;;-0.15;100.00;94297.81;5075222;28;20210;-63
2022/03/08 10:39:14;;;;;;;26.73;15.20;;;;;;;0.07;100.00;94290.88;5074872;28;20267;-62
2022/03/08 10:41:52;;;;;;;25.37;16.27;;;;;;;0.11;100.00;94304.00;5056871;28;20674;-64
2022/03/08 10:44:31;;;;;;;26.10;16.73;;;;;;;-0.04;100.00;94281.41;5056862;28;20183;-63
2022/03/08 10:47:24;;;;;;;28.10;16.37;;;;;;;0.11;100.00;94269.03;5056855;28;20694;-63
2022/03/08 10:49:56;;;;;;;28.37;17.83;;;;;;;0.15;100.00;94281.31;5052515;28;20196;-62
2022/03/08 10:52:30;;;;;;;33.73;17.40;;;;;;;0.14;100.00;94283.88;5074934;28;20195;-65
2022/03/08 10:55:08;;;;;;;31.27;16.50;;;;;;;0.18;100.00;94275.34;5074569;28;20175;-61
2022/03/08 10:57:34;;;;;;;28.77;17.33;;;;;;;0.18;100.00;94295.34;5056663;28;20695;-63
2022/03/08 11:00:00;;;;;;;28.53;16.00;;;;;;;0.18;100.00;94296.16;5074534;28;20560;-64
2022/03/08 11:02:25;;;;;;;26.50;16.43;;;;;;;0.29;100.00;94298.91;5056705;28;20564;-63
2022/03/08 11:05:08;;;;;;;34.63;17.10;;;;;;;0.47;100.00;94292.16;5074513;28;20225;-62
2022/03/08 11:07:37;;;;;;;27.80;16.70;;;;;;;0.63;100.00;94320.47;5056525;28;20182;-63
2022/03/08 11:10:05;;;;;;;28.03;16.60;;;;;;;0.60;100.00;94325.63;5074497;28;20273;-63
2022/03/08 11:12:31;;;;;;;27.93;16.83;;;;;;;0.73;100.00;94319.09;5074155;28;20216;-63